Main page
METAR-TAF:

METAR-TAF

Airports :

Laupheim Air Base

Laupheim, Germany

latitude: 48-13N, longitude: 009-55E, elevation: 538 m

Current weather observation

The report was made 55 minutes ago, at 14:20 UTC
Wind 8 kt from the North/Northwest
Temperature 15°C
Humidity 44%
Pressure 1024 hPa
Visibility 10 km or more
Few clouds at a height of 4800 ft
Scattered clouds at a height of 6000 ft

METAR: ETHL 221420Z 34008KT 9999 FEW048 SCT060 15/03 Q1024 BLU+

Time: 17:15 (15:15 UTC)

Forecast

The report was made 6 hours and 21 minutes ago, at 08:54 UTC
Forecast valid from 22 at 08 UTC to 22 at 17 UTC
Wind 10 kt from the Northwest with gusts up to 20 kt
Visibility: 1000 m
Scattered clouds at a height of 5000 ft

TAF: ETHL 220854Z 2208/2217 31010G20KT 9999 NSW SCT050 CANCEL 1000

Weather observations and forecasts of more than 4000 airports (METAR and TAF reports).

The available stations are represented by yellow and red dots on the map.

Hover mouse over dot to see the name of the station.

Then click to see weather observations and forecasts.

To change the map : click on the green buttons with a black cross to zoom in, on the green button with a dash to zoom out, or on the green arrows for adjacent maps.


METAR-TAF: